Time;durP1;ratioP1;P1;durP2;ratioP2;P2;SDS_P1;SDS_P2;PMS_P1;PMS_P2;Temp;Humidity;BMP_temperature;BMP_pressure;BME280_temperature;BME280_humidity;BME280_pressure;Samples;Min_cycle;Max_cycle;Signal;HPM_P1;HPM_P2
2023/01/22 00:00:54;;;;;;;83.40;42.20;;;;;;;-0.47;89.56;99388.27;90906;1274;22155;-80
2023/01/22 00:03:10;;;;;;;80.00;39.90;;;;;;;-0.47;89.61;99391.21;91005;1265;99138;-79
2023/01/22 00:05:11;;;;;;;86.30;43.80;;;;;;;-0.46;89.64;99400.70;90987;1276;22775;-80
2023/01/22 00:07:14;;;;;;;74.00;41.50;;;;;;;-0.47;89.55;99400.36;90907;1278;98392;-80
2023/01/22 00:09:16;;;;;;;81.80;44.40;;;;;;;-0.48;89.62;99399.16;91028;1275;98042;-80
2023/01/22 00:11:18;;;;;;;80.10;43.00;;;;;;;-0.47;89.68;99397.60;91101;1275;22229;-79
2023/01/22 00:13:21;;;;;;;78.60;44.50;;;;;;;-0.47;89.61;99401.91;90898;1270;98737;-79
2023/01/22 00:15:23;;;;;;;73.70;41.20;;;;;;;-0.46;89.66;99399.50;90901;1270;99180;-79
2023/01/22 00:17:24;;;;;;;84.00;44.60;;;;;;;-0.46;89.59;99400.71;91087;1276;22080;-80
2023/01/22 00:19:25;;;;;;;82.00;43.00;;;;;;;-0.47;89.67;99407.44;90906;1277;98291;-80
2023/01/22 00:21:26;;;;;;;74.30;42.20;;;;;;;-0.47;89.72;99408.98;90872;1276;97896;-80
2023/01/22 00:23:27;;;;;;;;;;;;;;;-0.48;89.72;99408.30;91122;1275;22454;-80
2023/01/22 00:25:28;;;;;;;75.30;38.30;;;;;;;-0.49;89.51;99411.75;91010;1267;84731;-80
2023/01/22 00:27:29;;;;;;;;;;;;;;;-0.50;89.40;99414.16;90953;1277;98254;-80
2023/01/22 00:29:30;;;;;;;72.40;37.00;;;;;;;-0.51;89.51;99419.34;91136;1275;22307;-80
2023/01/22 00:31:31;;;;;;;76.30;36.40;;;;;;;-0.53;89.78;99420.20;90848;1276;98437;-81
2023/01/22 00:33:33;;;;;;;75.90;37.50;;;;;;;-0.53;89.52;99411.40;90985;1268;97807;-80
2023/01/22 00:35:34;;;;;;;69.30;38.10;;;;;;;-0.53;89.55;99414.68;91151;1267;22143;-80
2023/01/22 00:37:35;;;;;;;64.40;35.30;;;;;;;-0.51;89.54;99415.72;90898;1273;99042;-80
2023/01/22 00:39:36;;;;;;;;;;;;;;;-0.50;89.68;99416.40;90913;1278;99508;-80
2023/01/22 00:41:37;;;;;;;63.40;35.30;;;;;;;-0.51;89.70;99422.61;91075;1276;22107;-81
2023/01/22 00:43:39;;;;;;;63.70;34.70;;;;;;;-0.52;89.60;99421.58;90938;1276;98172;-81
2023/01/22 00:45:40;;;;;;;66.70;35.30;;;;;;;-0.53;89.59;99421.23;90932;1277;98031;-81
2023/01/22 00:47:41;;;;;;;72.20;36.60;;;;;;;-0.52;89.62;99419.52;91056;1270;22295;-82
2023/01/22 00:49:42;;;;;;;74.70;38.40;;;;;;;-0.53;89.60;99414.86;91010;1275;99313;-80
2023/01/22 00:51:43;;;;;;;69.70;36.10;;;;;;;-0.53;89.55;99417.09;90932;1275;97949;-80
2023/01/22 00:53:44;;;;;;;69.00;35.80;;;;;;;-0.55;89.41;99412.60;91062;1276;22253;-80
2023/01/22 00:56:00;;;;;;;68.30;33.90;;;;;;;-0.57;89.43;99412.23;90833;1279;98173;-81
2023/01/22 00:58:01;;;;;;;64.10;34.70;;;;;;;-0.55;89.38;99419.33;90985;1270;98015;-80
2023/01/22 01:00:03;;;;;;;58.50;32.80;;;;;;;-0.54;89.32;99423.47;91119;1275;22195;-80
2023/01/22 01:02:05;;;;;;;70.40;33.60;;;;;;;-0.54;89.49;99426.92;90887;1274;98182;-80
2023/01/22 01:04:06;;;;;;;63.10;31.70;;;;;;;-0.54;89.58;99420.54;90937;1276;99311;-81
2023/01/22 01:06:13;;;;;;;57.30;29.00;;;;;;;-0.54;89.44;99420.89;91089;1276;22270;-81
2023/01/22 01:08:14;;;;;;;47.70;27.20;;;;;;;-0.54;89.44;99415.02;90998;1275;98567;-81
2023/01/22 01:10:15;;;;;;;52.80;28.60;;;;;;;-0.55;89.29;99412.95;91012;1275;97829;-80
2023/01/22 01:12:16;;;;;;;56.30;30.60;;;;;;;-0.56;89.49;99404.13;91062;1277;22217;-81
2023/01/22 01:14:17;;;;;;;55.60;28.20;;;;;;;-0.57;89.28;99401.90;90951;1276;99557;-80
2023/01/22 01:16:25;;;;;;;60.50;29.70;;;;;;;-0.57;89.45;99400.16;90939;1277;98092;-80
2023/01/22 01:18:27;;;;;;;54.60;28.60;;;;;;;-0.59;89.30;99404.64;91021;1274;22272;-80
2023/01/22 01:20:28;;;;;;;55.30;29.20;;;;;;;-0.61;89.27;99406.34;90846;1277;98347;-81
2023/01/22 01:22:29;;;;;;;62.30;30.50;;;;;;;-0.63;89.34;99404.96;91026;1275;97856;-80
2023/01/22 01:24:30;;;;;;;55.00;28.70;;;;;;;-0.65;89.27;99407.03;90968;1278;22180;-81
2023/01/22 01:26:33;;;;;;;50.40;27.20;;;;;;;-0.67;89.36;99404.25;90952;1275;98125;-81
2023/01/22 01:28:36;;;;;;;49.80;27.70;;;;;;;-0.69;89.34;99407.55;90953;1277;23538;-81
2023/01/22 01:30:37;;;;;;;51.60;26.50;;;;;;;-0.69;89.34;99414.10;90987;1277;22166;-81
2023/01/22 01:32:38;;;;;;;47.50;24.80;;;;;;;-0.70;89.35;99417.03;90935;1277;98012;-80
2023/01/22 01:34:40;;;;;;;45.10;27.20;;;;;;;-0.70;89.27;99421.16;91058;1276;22068;-81
2023/01/22 01:36:40;;;;;;;52.60;26.50;;;;;;;-0.69;89.24;99423.59;91008;1277;22654;-80
2023/01/22 01:38:42;;;;;;;52.60;26.10;;;;;;;-0.69;89.34;99429.62;90897;1278;98132;-80
2023/01/22 01:40:43;;;;;;;44.50;25.70;;;;;;;-0.69;89.38;99433.23;91054;1268;23203;-81
2023/01/22 01:42:45;;;;;;;54.50;25.40;;;;;;;-0.69;89.31;99433.25;91087;1269;23336;-81
2023/01/22 01:45:26;;;;;;;50.80;25.90;;;;;;;-0.68;89.32;99437.39;90975;1275;98035;-81
2023/01/22 01:47:34;;;;;;;43.00;23.10;;;;;;;-0.68;89.17;99438.94;91013;1264;22333;-80
2023/01/22 01:49:47;;;;;;;44.30;23.20;;;;;;;-0.67;89.35;99441.02;90981;1267;99279;-81
2023/01/22 01:51:50;;;;;;;40.90;22.40;;;;;;;-0.68;89.29;99448.77;90861;1274;98224;-80
2023/01/22 01:53:51;;;;;;;42.20;21.20;;;;;;;-0.69;89.16;99442.39;91064;1276;23354;-80
2023/01/22 01:55:55;;;;;;;38.20;20.80;;;;;;;-0.69;89.15;99444.81;90920;1269;98235;-81
2023/01/22 01:58:01;;;;;;;33.60;19.10;;;;;;;-0.69;89.26;99436.36;90992;1275;97849;-81
2023/01/22 02:00:09;;;;;;;28.80;17.90;;;;;;;-0.68;89.19;99440.15;91036;1277;22313;-81
2023/01/22 02:02:10;;;;;;;36.20;18.50;;;;;;;-0.68;89.23;99444.80;90915;1277;99381;-81
2023/01/22 02:04:11;;;;;;;31.50;18.10;;;;;;;-0.68;89.24;99447.39;90862;1277;99282;-81
2023/01/22 02:06:15;;;;;;;30.10;18.00;;;;;;;-0.69;89.22;99451.54;90993;1278;22279;-81
2023/01/22 02:08:16;;;;;;;28.00;18.10;;;;;;;-0.68;89.14;99452.23;90829;1270;98322;-80
2023/01/22 02:10:17;;;;;;;;;;;;;;;-0.68;89.23;99456.02;90828;1278;98200;-81
2023/01/22 02:12:18;;;;;;;33.90;18.20;;;;;;;-0.68;89.09;99462.41;91017;1277;22282;-81
2023/01/22 02:14:24;;;;;;;32.50;18.30;;;;;;;-0.71;88.99;99464.47;90960;1275;98554;-81
2023/01/22 02:16:25;;;;;;;35.00;19.00;;;;;;;-0.72;89.09;99465.85;90818;1271;98074;-80
2023/01/22 02:18:26;;;;;;;37.30;19.40;;;;;;;-0.72;89.17;99471.71;91037;1277;22271;-80
2023/01/22 02:20:31;;;;;;;;;;;;;;;-0.73;88.98;99468.95;90915;1274;99122;-80
2023/01/22 02:22:36;;;;;;;40.50;20.50;;;;;;;-0.73;89.05;99466.88;91039;1276;22307;-80
2023/01/22 02:24:37;;;;;;;38.10;20.70;;;;;;;-0.73;89.00;99462.04;91040;1270;24049;-81
2023/01/22 02:26:39;;;;;;;39.40;19.50;;;;;;;-0.73;89.09;99453.25;90880;1276;98972;-81
2023/01/22 02:28:40;;;;;;;44.00;21.60;;;;;;;-0.73;89.22;99452.38;90962;1276;22330;-81
2023/01/22 02:30:42;;;;;;;42.80;21.30;;;;;;;-0.73;89.11;99445.31;91023;1275;22425;-81
2023/01/22 02:32:43;;;;;;;37.60;21.00;;;;;;;-0.74;89.12;99445.48;90743;1277;99041;-80
2023/01/22 02:34:44;;;;;;;35.50;20.80;;;;;;;-0.74;89.08;99448.75;90966;1270;23010;-81
2023/01/22 02:36:45;;;;;;;35.60;22.10;;;;;;;-0.74;89.00;99449.78;90995;1276;23696;-81
2023/01/22 02:38:46;;;;;;;39.80;21.40;;;;;;;-0.75;89.03;99440.30;90838;1269;98711;-81
2023/01/22 02:40:50;;;;;;;44.40;22.40;;;;;;;-0.75;89.20;99443.56;91058;1267;22283;-81
2023/01/22 02:42:51;;;;;;;36.80;21.40;;;;;;;-0.76;89.06;99446.66;91061;1274;23149;-81
2023/01/22 02:44:52;;;;;;;39.50;20.60;;;;;;;-0.76;89.11;99445.12;90760;1280;99214;-81
2023/01/22 02:46:53;;;;;;;43.40;21.00;;;;;;;-0.76;89.04;99443.73;91025;1273;22439;-81
2023/01/22 02:48:54;;;;;;;37.20;18.30;;;;;;;-0.75;89.05;99446.15;91013;1269;22468;-80
2023/01/22 02:50:55;;;;;;;33.50;20.30;;;;;;;-0.76;89.08;99445.27;90880;1276;98927;-81
2023/01/22 02:52:56;;;;;;;;;;;;;;;-0.77;89.09;99449.24;91097;1275;22456;-80
2023/01/22 02:54:58;;;;;;;31.00;18.90;;;;;;;-0.79;89.13;99450.11;91036;1276;22470;-80
2023/01/22 02:56:59;;;;;;;34.90;19.20;;;;;;;-0.80;88.93;99445.26;90770;1278;98687;-80
2023/01/22 02:59:01;;;;;;;33.80;20.20;;;;;;;-0.80;89.17;99441.80;90905;1277;23055;-80
2023/01/22 03:01:19;;;;;;;34.70;21.90;;;;;;;-0.80;89.00;99446.29;90977;1277;22388;-80
2023/01/22 03:03:20;;;;;;;38.20;21.50;;;;;;;-0.81;89.05;99442.48;90869;1277;98745;-80
2023/01/22 03:05:21;;;;;;;41.70;21.50;;;;;;;-0.82;89.01;99440.94;91004;1273;22291;-81
2023/01/22 03:07:22;;;;;;;40.10;22.00;;;;;;;-0.83;89.10;99441.11;90882;1273;99274;-80
2023/01/22 03:09:23;;;;;;;43.20;22.50;;;;;;;-0.84;88.99;99448.52;91013;1275;98173;-80
2023/01/22 03:11:26;;;;;;;37.60;20.00;;;;;;;-0.85;88.99;99455.07;91068;1275;22355;-78
2023/01/22 03:22:47;;;;;;;35.80;20.60;;;;;;;-0.84;89.02;99460.94;91063;1273;22263;-79
2023/01/22 03:24:51;;;;;;;36.80;21.10;;;;;;;-0.86;89.03;99465.08;91055;1267;22235;-79
2023/01/22 03:26:53;;;;;;;41.30;22.30;;;;;;;-0.86;88.96;99469.20;90803;1277;99452;-79
2023/01/22 03:28:54;;;;;;;38.20;21.20;;;;;;;-0.84;89.11;99469.73;90922;1277;22068;-79
2023/01/22 03:30:55;;;;;;;33.80;19.40;;;;;;;-0.84;89.01;99471.80;91073;1276;22266;-78
2023/01/22 03:32:56;;;;;;;32.10;19.70;;;;;;;-0.84;88.89;99471.11;90829;1277;98758;-79
2023/01/22 03:34:57;;;;;;;37.10;20.70;;;;;;;-0.84;89.02;99471.46;91029;1268;22320;-79
2023/01/22 03:36:58;;;;;;;36.40;21.30;;;;;;;-0.84;89.03;99470.09;90987;1271;23053;-79
2023/01/22 03:39:00;;;;;;;36.00;21.20;;;;;;;-0.83;89.13;99476.48;90887;1269;99885;-79
2023/01/22 03:41:03;;;;;;;41.00;21.60;;;;;;;-0.82;89.11;99472.69;90985;1277;22326;-79
2023/01/22 03:43:03;;;;;;;37.80;20.90;;;;;;;-0.82;89.00;99471.66;90947;1274;22200;-79
2023/01/22 03:45:05;;;;;;;40.30;21.30;;;;;;;-0.82;89.14;99467.85;90783;1279;99344;-79
2023/01/22 03:47:06;;;;;;;33.40;20.60;;;;;;;-0.82;88.85;99470.45;91011;1271;22723;-79
2023/01/22 03:49:08;;;;;;;33.00;20.00;;;;;;;-0.81;89.07;99465.97;90994;1276;22201;-79
2023/01/22 03:51:14;;;;;;;34.50;19.70;;;;;;;-0.82;88.81;99464.75;90845;1277;99684;-80
2023/01/22 03:53:15;;;;;;;29.10;19.30;;;;;;;-0.82;88.98;99468.89;91006;1276;22269;-79
2023/01/22 03:55:16;;;;;;;38.40;19.30;;;;;;;-0.82;89.03;99475.09;91003;1275;22283;-79
2023/01/22 03:57:17;;;;;;;34.70;18.80;;;;;;;-0.83;88.80;99473.70;90785;1271;98146;-79
2023/01/22 03:59:19;;;;;;;30.00;18.40;;;;;;;-0.84;89.08;99471.11;90907;1278;22324;-80
2023/01/22 04:01:22;;;;;;;28.60;19.20;;;;;;;-0.85;88.91;99470.25;90960;1274;99678;-79
2023/01/22 04:03:25;;;;;;;28.40;17.00;;;;;;;-0.85;89.05;99473.52;90906;1278;97846;-79
2023/01/22 04:05:26;;;;;;;28.30;17.80;;;;;;;-0.85;88.95;99473.19;90978;1278;22255;-79
2023/01/22 04:07:27;;;;;;;28.60;19.60;;;;;;;-0.84;88.91;99473.36;90905;1276;99157;-79
2023/01/22 04:09:27;;;;;;;26.80;16.30;;;;;;;-0.84;89.05;99472.16;90930;1277;98090;-79
2023/01/22 04:11:28;;;;;;;30.40;18.50;;;;;;;-0.83;88.89;99471.29;91004;1277;23149;-79
2023/01/22 04:13:31;;;;;;;29.20;18.30;;;;;;;-0.84;88.84;99472.84;90935;1268;99248;-79
2023/01/22 04:15:33;;;;;;;31.40;17.90;;;;;;;-0.84;88.89;99474.73;90922;1274;99183;-80
2023/01/22 04:17:33;;;;;;;24.40;17.30;;;;;;;-0.84;88.95;99474.57;90978;1273;22911;-80
2023/01/22 04:19:34;;;;;;;28.30;16.30;;;;;;;-0.84;88.92;99477.67;90966;1276;103304;-79
2023/01/22 04:21:35;;;;;;;30.80;17.80;;;;;;;-0.85;88.91;99475.42;91009;1276;99135;-79
2023/01/22 04:23:36;;;;;;;25.20;16.40;;;;;;;-0.84;88.93;99478.20;91017;1277;22280;-79
2023/01/22 04:25:37;;;;;;;26.60;17.20;;;;;;;-0.86;88.81;99480.61;90932;1273;98133;-79
2023/01/22 04:27:38;;;;;;;27.50;15.80;;;;;;;-0.87;88.93;99479.04;90932;1277;99352;-79
2023/01/22 04:29:39;;;;;;;;;;;;;;;-0.87;88.81;99482.66;91011;1268;22492;-80
2023/01/22 04:31:40;;;;;;;24.00;15.90;;;;;;;-0.87;88.96;99482.32;90942;1270;83907;-80
2023/01/22 04:33:41;;;;;;;28.70;15.20;;;;;;;-0.87;88.94;99478.19;90981;1277;98112;-79
2023/01/22 04:35:42;;;;;;;24.00;15.60;;;;;;;-0.88;88.90;99479.05;90868;1278;22238;-80
2023/01/22 04:37:43;;;;;;;29.50;17.00;;;;;;;-0.89;88.97;99479.73;90799;1279;98002;-79
2023/01/22 04:39:44;;;;;;;;;;;;;;;-0.89;88.93;99473.69;91033;1275;99154;-79
2023/01/22 04:41:45;;;;;;;27.10;14.80;;;;;;;-0.89;88.88;99473.86;90969;1277;22350;-80
2023/01/22 04:43:46;;;;;;;21.10;14.70;;;;;;;-0.89;89.04;99476.11;90984;1268;97899;-79
2023/01/22 04:45:50;;;;;;;21.40;13.80;;;;;;;-0.89;88.96;99475.24;91041;1275;97843;-79
2023/01/22 04:47:51;;;;;;;22.70;15.70;;;;;;;-0.89;89.02;99479.21;91052;1276;22258;-79
2023/01/22 04:49:51;;;;;;;25.40;15.20;;;;;;;-0.90;88.86;99478.16;90760;1280;98068;-79
2023/01/22 04:51:53;;;;;;;23.10;15.70;;;;;;;-0.91;88.90;99481.60;91044;1275;99406;-78
2023/01/22 04:53:53;;;;;;;24.90;16.20;;;;;;;-0.91;88.95;99482.81;91069;1275;22281;-79
2023/01/22 04:55:54;;;;;;;22.90;10.60;;;;;;;-0.91;88.85;99479.71;90875;1277;99498;-78
2023/01/22 04:57:56;;;;;;;;;;;;;;;-0.91;88.97;99480.91;91027;1276;98978;-80
2023/01/22 04:59:57;;;;;;;19.10;13.70;;;;;;;-0.91;88.98;99483.15;91010;1276;22364;-79
2023/01/22 05:01:58;;;;;;;22.80;13.00;;;;;;;-0.92;88.84;99481.25;90872;1277;99225;-79
2023/01/22 05:04:01;;;;;;;23.10;14.00;;;;;;;-0.91;89.13;99482.81;91039;1275;98554;-79
2023/01/22 05:06:05;;;;;;;25.90;14.80;;;;;;;-0.92;89.00;99484.19;91093;1268;23551;-79
2023/01/22 05:08:06;;;;;;;26.60;15.30;;;;;;;-0.93;89.01;99481.60;90879;1277;100631;-79
2023/01/22 05:10:07;;;;;;;23.20;16.10;;;;;;;-0.92;88.89;99482.63;90965;1272;99256;-78
2023/01/22 05:12:09;;;;;;;18.80;12.70;;;;;;;-0.92;89.06;99483.85;91038;1277;22269;-79
2023/01/22 05:14:10;;;;;;;31.40;15.80;;;;;;;-0.93;88.94;99485.92;90686;1277;236088;-79
2023/01/22 05:16:11;;;;;;;25.20;14.70;;;;;;;-0.95;89.02;99482.45;90928;1276;100868;-81
2023/01/22 05:18:12;;;;;;;;;;;;;;;-0.95;88.92;99484.34;91043;1276;22444;-79
2023/01/22 05:20:13;;;;;;;23.30;13.40;;;;;;;-0.95;88.95;99487.27;90974;1276;84267;-78
2023/01/22 05:22:14;;;;;;;29.70;15.90;;;;;;;-0.94;89.01;99492.12;90994;1276;97875;-79
2023/01/22 05:24:17;;;;;;;21.90;14.00;;;;;;;-0.94;89.08;99492.80;90989;1271;22221;-78
2023/01/22 05:26:18;;;;;;;28.60;15.90;;;;;;;-0.94;89.00;99497.11;91018;1275;98919;-79
2023/01/22 05:28:19;;;;;;;26.00;15.50;;;;;;;-0.93;88.93;99495.40;91009;1275;97805;-79
2023/01/22 05:30:20;;;;;;;29.40;15.90;;;;;;;-0.93;88.99;99497.12;91021;1271;23293;-79
2023/01/22 05:32:21;;;;;;;27.70;16.30;;;;;;;-0.93;89.07;99494.02;90878;1277;99597;-78
2023/01/22 05:34:23;;;;;;;29.80;15.40;;;;;;;-0.93;89.06;99490.73;90901;1277;98134;-78
2023/01/22 05:36:24;;;;;;;29.30;15.20;;;;;;;-0.93;88.96;99490.05;90908;1279;22314;-79
2023/01/22 05:38:27;;;;;;;27.70;16.30;;;;;;;-0.92;88.93;99496.95;90947;1272;98181;-79
2023/01/22 05:40:28;;;;;;;27.70;15.80;;;;;;;-0.92;89.10;99500.40;90980;1275;97928;-78
2023/01/22 05:42:29;;;;;;;27.40;15.90;;;;;;;-0.93;89.13;99499.37;91074;1279;22258;-79
2023/01/22 05:44:29;;;;;;;24.50;15.00;;;;;;;-0.92;89.01;99505.91;90949;1271;97938;-79
2023/01/22 05:46:31;;;;;;;;;;;;;;;-0.94;88.98;99510.73;91018;1275;98959;-78
2023/01/22 05:48:32;;;;;;;27.30;14.20;;;;;;;-0.95;88.92;99514.88;91031;1277;22337;-79
2023/01/22 05:50:33;;;;;;;28.80;15.10;;;;;;;-0.94;89.05;99525.05;90901;1276;98074;-79
2023/01/22 05:52:34;;;;;;;;;;;;;;;-0.94;89.07;99531.79;90889;1271;97932;-79
2023/01/22 05:54:39;;;;;;;24.90;12.60;;;;;;;-0.94;89.02;99536.09;91073;1277;22261;-79
2023/01/22 05:56:39;;;;;;;21.60;12.80;;;;;;;-0.95;89.07;99536.95;90926;1276;98989;-79
2023/01/22 05:58:41;;;;;;;25.30;14.00;;;;;;;-0.94;89.07;99536.44;90989;1270;22286;-79
2023/01/22 06:00:41;;;;;;;22.70;14.50;;;;;;;-0.93;89.14;99534.89;91015;1277;23417;-79
2023/01/22 06:02:43;;;;;;;21.30;15.30;;;;;;;-0.94;89.07;99542.31;90908;1271;99044;-79
2023/01/22 06:04:44;;;;;;;28.30;15.60;;;;;;;-0.93;89.04;99544.22;90909;1279;22297;-79
2023/01/22 06:06:45;;;;;;;26.50;15.50;;;;;;;-0.92;89.09;99538.17;90996;1277;22284;-79
2023/01/22 06:08:47;;;;;;;28.80;14.30;;;;;;;-0.91;89.23;99532.50;90825;1271;99185;-80
2023/01/22 06:10:48;;;;;;;30.00;15.50;;;;;;;-0.91;89.09;99533.88;91097;1275;22376;-79
2023/01/22 06:12:49;;;;;;;26.00;14.90;;;;;;;-0.91;89.19;99541.64;91078;1276;22196;-79
2023/01/22 06:14:52;;;;;;;24.30;15.70;;;;;;;-0.91;89.00;99541.80;90820;1269;98332;-79
2023/01/22 06:16:53;;;;;;;28.50;16.30;;;;;;;-0.90;88.97;99535.77;91056;1274;22370;-79
2023/01/22 06:18:54;;;;;;;30.70;16.10;;;;;;;-0.90;89.01;99535.27;91003;1277;22417;-78
2023/01/22 06:20:59;;;;;;;;;;;;;;;-0.89;89.23;99534.77;90891;1277;99254;-79
2023/01/22 06:23:02;;;;;;;21.60;12.20;;;;;;;-0.90;89.08;99537.86;91084;1267;22474;-79
2023/01/22 06:25:04;;;;;;;25.70;15.40;;;;;;;-0.90;89.13;99538.55;91130;1275;22380;-79
2023/01/22 06:27:05;;;;;;;19.40;13.50;;;;;;;-0.90;89.10;99529.06;90845;1274;99297;-79
2023/01/22 06:29:06;;;;;;;20.20;13.70;;;;;;;-0.89;89.07;99530.79;90987;1276;22196;-78
2023/01/22 06:31:07;;;;;;;21.40;14.10;;;;;;;-0.90;89.23;99533.18;90997;1274;22401;-78
2023/01/22 06:33:08;;;;;;;;;;;;;;;-0.90;89.12;99535.61;90801;1273;99157;-78
2023/01/22 06:35:09;;;;;;;26.00;14.10;;;;;;;-0.91;89.09;99536.82;91078;1274;22404;-78
2023/01/22 06:37:10;;;;;;;32.00;13.70;;;;;;;-0.90;89.11;99534.90;91136;1275;22331;-78
2023/01/22 06:39:11;;;;;;;23.20;14.90;;;;;;;-0.91;89.11;99537.67;90756;1277;98964;-78
2023/01/22 06:41:13;;;;;;;28.70;15.20;;;;;;;-0.92;89.12;99528.00;91054;1275;22328;-77
2023/01/22 06:43:14;;;;;;;25.50;13.70;;;;;;;-0.92;88.96;99528.35;91111;1275;23369;-77
2023/01/22 06:45:16;;;;;;;25.80;15.90;;;;;;;-0.91;89.14;99530.25;90890;1275;100217;-78
2023/01/22 06:47:17;;;;;;;;;;;;;;;-0.91;89.05;99539.39;91079;1275;22455;-78
2023/01/22 06:49:18;;;;;;;23.30;12.50;;;;;;;-0.92;89.17;99536.97;91106;1275;22893;-77
2023/01/22 06:51:19;;;;;;;;;;;;;;;-0.93;89.03;99538.02;90844;1277;99061;-78
2023/01/22 06:53:20;;;;;;;27.50;14.00;;;;;;;-0.92;89.17;99549.05;91005;1275;22302;-78
2023/01/22 06:55:21;;;;;;;25.60;14.70;;;;;;;-0.92;89.09;99553.02;91006;1276;22311;-78
2023/01/22 06:57:22;;;;;;;21.00;13.20;;;;;;;-0.92;89.14;99552.32;90874;1278;98104;-78
2023/01/22 06:59:23;;;;;;;20.90;14.60;;;;;;;-0.91;89.13;99550.44;91027;1277;23277;-78
2023/01/22 07:01:24;;;;;;;;;;;;;;;-0.90;89.14;99555.29;90943;1276;99422;-79
2023/01/22 07:03:25;;;;;;;21.40;13.80;;;;;;;-0.90;89.17;99555.28;90928;1277;85288;-78
2023/01/22 07:05:26;;;;;;;24.60;14.40;;;;;;;-0.90;89.20;99554.24;91051;1271;22151;-78
2023/01/22 07:07:27;;;;;;;25.00;15.20;;;;;;;-0.88;89.19;99553.91;90911;1269;98212;-79
2023/01/22 07:09:28;;;;;;;23.80;14.10;;;;;;;-0.88;89.27;99553.73;90951;1278;98069;-77
2023/01/22 07:11:29;;;;;;;19.50;13.00;;;;;;;-0.87;89.23;99549.60;90962;1277;22378;-76
2023/01/22 07:13:31;;;;;;;;;;;;;;;-0.88;89.25;99547.70;90910;1271;100202;-79
2023/01/22 07:15:32;;;;;;;21.70;14.00;;;;;;;-0.88;89.17;99553.73;90931;1277;85329;-79
2023/01/22 07:17:33;;;;;;;;;;;;;;;-0.87;89.26;99557.02;90938;1277;22462;-78
2023/01/22 07:19:34;;;;;;;26.70;12.30;;;;;;;-0.86;89.28;99565.13;90928;1277;84305;-78
2023/01/22 07:21:35;;;;;;;21.00;13.80;;;;;;;-0.85;89.25;99571.85;90943;1277;99063;-78
2023/01/22 07:23:36;;;;;;;25.90;15.60;;;;;;;-0.84;89.15;99578.95;90973;1271;22331;-78
2023/01/22 07:25:37;;;;;;;;;;;;;;;-0.83;89.25;99588.96;90949;1269;99964;-77
2023/01/22 07:27:38;;;;;;;17.20;13.00;;;;;;;-0.83;89.19;99600.35;91028;1264;84011;-78
2023/01/22 07:29:40;;;;;;;19.50;12.20;;;;;;;-0.82;89.29;99600.70;91054;1275;22270;-77
2023/01/22 07:31:41;;;;;;;20.00;13.30;;;;;;;-0.82;89.24;99602.59;90943;1275;99980;-78
2023/01/22 07:33:42;;;;;;;19.80;12.70;;;;;;;-0.82;89.25;99598.29;90993;1274;98034;-78
2023/01/22 07:35:44;;;;;;;22.20;12.10;;;;;;;-0.82;89.12;99602.77;90946;1272;22362;-77
2023/01/22 07:37:52;;;;;;;20.70;12.40;;;;;;;-0.81;89.21;99603.30;90952;1275;97821;-78
2023/01/22 07:39:53;;;;;;;23.90;13.70;;;;;;;-0.81;89.14;99602.44;90924;1277;97867;-78
2023/01/22 07:41:54;;;;;;;;;;;;;;;-0.81;89.15;99605.19;90954;1272;22441;-78
2023/01/22 07:43:56;;;;;;;19.50;13.60;;;;;;;-0.80;89.14;99609.69;91005;1275;83911;-77
2023/01/22 07:46:04;;;;;;;23.20;12.10;;;;;;;-0.79;89.16;99605.38;90976;1275;98186;-77
2023/01/22 07:48:09;;;;;;;18.90;12.60;;;;;;;-0.78;89.22;99604.02;90958;1274;22234;-78
2023/01/22 07:50:10;;;;;;;18.40;13.50;;;;;;;-0.78;89.26;99600.06;90969;1271;99169;-77
2023/01/22 07:52:11;;;;;;;;;;;;;;;-0.77;89.19;99599.54;90964;1278;99121;-78
2023/01/22 07:54:12;;;;;;;18.00;12.50;;;;;;;-0.78;89.21;99602.64;91063;1268;22246;-78
2023/01/22 07:56:13;;;;;;;20.80;13.90;;;;;;;-0.78;89.23;99601.60;90966;1271;98103;-83
2023/01/22 07:58:14;;;;;;;25.10;15.00;;;;;;;-0.78;89.35;99607.30;91111;1271;97973;-82
2023/01/22 08:00:15;;;;;;;21.50;14.60;;;;;;;-0.76;89.30;99610.06;91146;1271;22298;-83
2023/01/22 08:02:17;;;;;;;22.30;15.10;;;;;;;-0.74;89.23;99612.52;90931;1276;98022;-83
2023/01/22 08:04:18;;;;;;;23.20;15.20;;;;;;;-0.72;89.37;99607.52;91033;1275;98086;-84
2023/01/22 08:06:19;;;;;;;21.20;13.00;;;;;;;-0.73;89.22;99598.71;91068;1271;22259;-82
2023/01/22 08:08:20;;;;;;;;;;;;;;;-0.69;89.28;99601.67;90892;1277;97939;-82
2023/01/22 08:10:21;;;;;;;16.90;11.60;;;;;;;-0.70;89.18;99600.63;90996;1275;83998;-83
2023/01/22 08:12:23;;;;;;;18.50;13.90;;;;;;;-0.71;89.26;99604.77;90985;1279;22799;-82
2023/01/22 08:14:24;;;;;;;20.90;13.90;;;;;;;-0.71;89.24;99592.00;90915;1277;98463;-84
2023/01/22 08:16:25;;;;;;;19.80;14.80;;;;;;;-0.70;89.39;99588.73;90925;1279;98075;-83
2023/01/22 08:18:26;;;;;;;19.10;13.30;;;;;;;-0.70;89.11;99584.40;91076;1270;22316;-84
2023/01/22 08:20:27;;;;;;;24.20;15.10;;;;;;;-0.71;89.17;99591.65;90830;1277;97994;-84
2023/01/22 08:22:28;;;;;;;20.60;13.90;;;;;;;-0.71;89.24;99596.48;91063;1275;97849;-82
2023/01/22 08:24:30;;;;;;;26.10;14.80;;;;;;;-0.70;89.36;99600.10;90970;1277;22792;-81
2023/01/22 08:26:31;;;;;;;20.70;14.30;;;;;;;-0.70;89.35;99600.11;90851;1274;99098;-83
2023/01/22 08:28:32;;;;;;;26.70;16.90;;;;;;;-0.68;89.28;99599.59;91004;1271;98369;-81
2023/01/22 08:30:34;;;;;;;24.20;15.60;;;;;;;-0.66;89.22;99603.60;91014;1277;22193;-83
2023/01/22 08:32:36;;;;;;;22.20;14.80;;;;;;;-0.64;89.19;99606.53;90920;1276;99228;-81
2023/01/22 08:34:36;;;;;;;22.10;15.20;;;;;;;-0.63;89.30;99606.19;91037;1275;97816;-82
2023/01/22 08:36:37;;;;;;;26.90;16.90;;;;;;;-0.62;89.37;99604.64;91025;1275;22359;-84
2023/01/22 08:38:38;;;;;;;22.30;16.00;;;;;;;-0.61;89.23;99607.93;90862;1273;99167;-84
2023/01/22 08:40:39;;;;;;;25.20;16.40;;;;;;;-0.58;89.35;99609.16;91110;1268;22494;-84
2023/01/22 08:42:40;;;;;;;30.10;18.40;;;;;;;-0.56;89.37;99612.64;91156;1275;22341;-85
2023/01/22 08:44:41;;;;;;;23.50;16.10;;;;;;;-0.54;89.19;99615.25;90788;1278;98731;-81
2023/01/22 08:46:42;;;;;;;24.20;15.60;;;;;;;-0.51;89.26;99617.66;91022;1277;22447;-84
2023/01/22 08:48:43;;;;;;;;;;;;;;;-0.49;89.25;99618.38;91104;1275;22416;-87
2023/01/22 08:50:44;;;;;;;28.20;17.50;;;;;;;-0.49;89.26;99618.89;90830;1277;84140;-82
2023/01/22 08:52:46;;;;;;;22.20;15.60;;;;;;;-0.48;89.38;99619.42;91031;1277;22420;-81
2023/01/22 08:54:47;;;;;;;28.50;17.80;;;;;;;-0.47;89.31;99617.70;91035;1277;22309;-82
2023/01/22 08:56:48;;;;;;;28.20;18.40;;;;;;;-0.46;89.25;99617.70;90861;1274;99576;-81
2023/01/22 08:58:51;;;;;;;25.50;16.30;;;;;;;-0.44;89.43;99618.08;91020;1278;22438;-80
2023/01/22 09:00:53;;;;;;;26.60;17.80;;;;;;;-0.43;89.30;99618.59;91021;1277;22225;-85
2023/01/22 09:02:58;;;;;;;24.20;16.20;;;;;;;-0.42;89.25;99618.60;90832;1277;98962;-83
2023/01/22 09:05:00;;;;;;;28.60;17.00;;;;;;;-0.41;89.20;99620.67;90993;1270;22451;-84
2023/01/22 09:07:01;;;;;;;;;;;;;;;-0.42;89.34;99617.39;91082;1277;22580;-83
2023/01/22 09:09:03;;;;;;;21.60;15.00;;;;;;;-0.42;89.27;99624.30;90944;1271;84442;-83
2023/01/22 09:11:05;;;;;;;23.10;14.20;;;;;;;-0.42;89.44;99624.64;90998;1277;22448;-83
2023/01/22 09:13:06;;;;;;;19.90;15.00;;;;;;;-0.41;89.36;99621.38;91032;1277;22453;-84
2023/01/22 09:15:08;;;;;;;28.90;15.70;;;;;;;-0.42;89.23;99619.80;90866;1276;98842;-83
2023/01/22 09:17:08;;;;;;;;;;;;;;;-0.42;89.16;99623.25;91010;1277;22470;-85
2023/01/22 09:19:10;;;;;;;25.40;16.30;;;;;;;-0.41;89.33;99630.52;91075;1277;22365;-82
2023/01/22 09:21:11;;;;;;;29.50;16.60;;;;;;;-0.39;89.36;99629.33;90953;1259;98600;-82
2023/01/22 09:23:12;;;;;;;27.50;17.50;;;;;;;-0.36;89.43;99626.74;91167;1275;22302;-78
2023/01/22 09:25:13;;;;;;;28.50;17.00;;;;;;;-0.35;89.37;99626.59;91063;1277;22296;-82
2023/01/22 09:27:14;;;;;;;37.30;20.70;;;;;;;-0.33;89.27;99625.90;90839;1274;98196;-81
2023/01/22 09:29:15;;;;;;;37.60;20.30;;;;;;;-0.31;89.39;99625.23;91052;1277;22450;-82
2023/01/22 09:31:16;;;;;;;32.10;20.40;;;;;;;-0.31;89.41;99619.02;91104;1274;22205;-79
2023/01/22 09:33:18;;;;;;;28.40;18.00;;;;;;;-0.27;89.18;99624.73;90856;1277;98714;-82
2023/01/22 09:35:19;;;;;;;30.70;17.10;;;;;;;-0.26;89.30;99618.70;91060;1274;22324;-80